Time;durP1;ratioP1;P1;durP2;ratioP2;P2;SDS_P1;SDS_P2;PMS_P1;PMS_P2;Temp;Humidity;BMP_temperature;BMP_pressure;BME280_temperature;BME280_humidity;BME280_pressure;Samples;Min_cycle;Max_cycle;Signal;HPM_P1;HPM_P2
2023/07/18 00:01:59;;;;;;;0.67;0.50;;;22.30;99.90;;;22.47;50.32;101784.22;4894304;28;97316;-42
2023/07/18 00:04:27;;;;;;;0.90;0.47;;;22.30;99.90;;;22.47;50.42;101781.53;4902215;28;101191;-44
2023/07/18 00:06:54;;;;;;;0.63;0.63;;;22.30;99.90;;;22.48;50.13;101774.34;4899392;28;97406;-44
2023/07/18 00:09:21;;;;;;;1.50;0.83;;;22.30;99.90;;;22.48;50.03;101785.09;4886569;28;99802;-45
2023/07/18 00:11:47;;;;;;;0.93;0.70;;;22.30;99.90;;;22.43;47.70;101787.22;4909733;28;98090;-46
2023/07/18 00:14:14;;;;;;;0.97;0.60;;;22.20;99.90;;;22.40;49.41;101787.41;4890348;28;97326;-43
2023/07/18 00:16:41;;;;;;;1.17;1.07;;;22.20;99.90;;;22.41;50.32;101791.81;4903018;28;97502;-42
2023/07/18 00:19:12;;;;;;;0.70;0.60;;;22.20;99.90;;;22.30;50.37;101791.72;4903480;28;97501;-46
2023/07/18 00:21:41;;;;;;;1.23;0.60;;;22.00;99.90;;;22.24;50.52;101790.28;4895694;28;100463;-44
2023/07/18 00:24:07;;;;;;;1.87;0.90;;;21.90;99.90;;;22.23;50.58;101792.09;4899406;28;102375;-45
2023/07/18 00:26:33;;;;;;;0.70;0.37;;;21.90;99.90;;;22.20;50.43;101792.31;4897438;28;97501;-49
2023/07/18 00:28:59;;;;;;;0.53;0.53;;;21.90;99.90;;;22.17;51.04;101797.91;4899150;28;97661;-43
2023/07/18 00:31:25;;;;;;;0.50;0.40;;;21.90;99.90;;;22.20;50.98;101795.00;4899722;28;119901;-42
2023/07/18 00:33:51;;;;;;;0.93;0.73;;;21.90;99.90;;;22.20;51.02;101788.75;4901887;28;98430;-43
2023/07/18 00:36:16;;;;;;;1.40;0.80;;;21.90;99.90;;;22.22;51.04;101784.16;4898002;28;97440;-45
2023/07/18 00:38:42;;;;;;;1.03;0.60;;;22.00;99.90;;;22.24;51.04;101791.13;4901762;28;115926;-42
2023/07/18 00:41:10;;;;;;;1.13;0.57;;;22.00;99.90;;;22.27;50.92;101782.84;4918968;28;107325;-44
2023/07/18 00:43:36;;;;;;;1.17;0.50;;;22.10;99.90;;;22.31;50.78;101782.69;4915062;28;105774;-44
2023/07/18 00:46:05;;;;;;;0.97;0.53;;;22.20;99.90;;;22.31;50.88;101780.00;4902998;28;106242;-41
2023/07/18 00:48:32;;;;;;;0.90;0.60;;;22.20;99.90;;;22.32;51.00;101773.66;4918281;28;97495;-42
2023/07/18 00:51:00;;;;;;;1.20;0.70;;;22.20;99.90;;;22.40;50.59;101773.97;4913429;28;97969;-43
2023/07/18 00:53:27;;;;;;;1.53;0.90;;;22.20;99.90;;;22.43;50.78;101760.34;4909857;28;98641;-47
2023/07/18 00:55:54;;;;;;;0.57;0.50;;;22.30;99.90;;;22.44;50.63;101762.94;4923177;28;96958;-42
2023/07/18 00:58:22;;;;;;;1.30;0.50;;;22.30;99.90;;;22.42;50.59;101758.59;4928120;28;98652;-43
2023/07/18 01:00:48;;;;;;;0.50;0.50;;;22.30;99.90;;;22.45;50.46;101763.78;4917215;28;110670;-44
2023/07/18 01:03:15;;;;;;;1.10;0.60;;;22.30;99.90;;;22.45;50.52;101764.66;4914851;28;97215;-42
2023/07/18 01:05:42;;;;;;;1.73;0.70;;;22.30;99.90;;;22.46;50.60;101760.13;4908160;28;97271;-42
2023/07/18 01:08:07;;;;;;;1.10;0.50;;;22.30;99.90;;;22.47;50.48;101756.47;4915397;28;97079;-45
2023/07/18 01:10:33;;;;;;;1.40;0.93;;;22.30;99.90;;;22.48;50.62;101758.19;4920268;28;110068;-42
2023/07/18 01:13:00;;;;;;;0.47;0.37;;;22.30;99.90;;;22.47;50.55;101751.09;4907448;28;97445;-42
2023/07/18 01:15:32;;;;;;;0.60;0.40;;;22.30;99.90;;;22.45;50.43;101748.53;4912802;28;97464;-43
2023/07/18 01:17:58;;;;;;;1.87;0.67;;;22.20;99.90;;;22.41;50.54;101751.50;4911360;28;97284;-42
2023/07/18 01:20:27;;;;;;;1.33;0.73;;;22.20;99.90;;;22.39;50.63;101753.44;4918380;28;97698;-43
2023/07/18 01:22:57;;;;;;;1.30;0.60;;;22.10;99.90;;;22.37;50.81;101750.00;4903436;28;97600;-43
2023/07/18 01:25:23;;;;;;;1.10;0.70;;;22.10;99.90;;;22.37;50.62;101744.63;4919787;28;97415;-44
2023/07/18 01:27:52;;;;;;;1.43;0.70;;;22.10;99.90;;;22.36;50.82;101750.97;4914454;28;97617;-43
2023/07/18 01:30:22;;;;;;;1.00;0.50;;;22.10;99.90;;;22.35;50.72;101741.19;4903287;28;97563;-43
2023/07/18 01:32:49;;;;;;;0.50;0.50;;;22.10;99.90;;;22.32;50.77;101754.84;4907789;28;97874;-43
2023/07/18 01:35:17;;;;;;;1.10;0.70;;;22.10;99.90;;;22.27;49.71;101744.38;4917340;28;97206;-42
2023/07/18 01:37:46;;;;;;;0.83;0.70;;;22.00;99.90;;;22.19;51.20;101747.59;4906197;28;97035;-44
2023/07/18 01:40:15;;;;;;;2.00;0.90;;;21.80;99.90;;;22.14;50.06;101744.38;4912536;28;99755;-50
2023/07/18 01:42:42;;;;;;;1.30;0.70;;;21.70;99.90;;;22.04;51.44;101743.22;4917675;28;97728;-44
2023/07/18 01:45:10;;;;;;;1.47;0.70;;;21.60;99.90;;;22.01;51.67;101738.06;4924329;28;97387;-43
2023/07/18 01:47:40;;;;;;;2.43;0.97;;;21.60;99.90;;;22.01;51.80;101737.19;4918848;28;97226;-42
2023/07/18 01:50:07;;;;;;;0.80;0.50;;;21.60;99.90;;;22.02;51.79;101733.53;4906743;28;97013;-43
2023/07/18 01:52:36;;;;;;;1.00;0.60;;;21.70;99.90;;;22.05;51.65;101738.69;4913828;28;97236;-42
2023/07/18 01:55:04;;;;;;;1.70;0.97;;;21.70;99.90;;;21.96;49.45;101737.47;4920017;28;99796;-46
2023/07/18 01:57:39;;;;;;;0.43;0.40;;;21.60;99.90;;;21.90;51.66;101732.53;4904499;28;98329;-44
2023/07/18 02:00:10;;;;;;;1.20;0.70;;;21.40;99.90;;;21.91;52.17;101736.94;4911030;28;98517;-42
2023/07/18 02:02:40;;;;;;;0.83;0.40;;;21.50;99.90;;;21.94;52.06;101725.97;4933519;28;97628;-42
2023/07/18 02:05:07;;;;;;;0.63;0.60;;;21.60;99.90;;;21.96;51.96;101719.53;4911378;28;98528;-43
2023/07/18 02:07:34;;;;;;;1.53;0.70;;;21.60;99.90;;;22.02;51.87;101718.28;4910925;28;97266;-46
2023/07/18 02:10:01;;;;;;;1.23;0.30;;;21.70;99.90;;;22.08;51.77;101717.03;4909041;28;97284;-43
2023/07/18 02:12:27;;;;;;;1.30;0.87;;;21.80;99.90;;;22.12;51.69;101719.41;4910600;28;97625;-46
2023/07/18 02:14:53;;;;;;;0.97;0.50;;;21.90;99.90;;;22.16;51.46;101726.31;4909815;28;97366;-44
2023/07/18 02:17:19;;;;;;;0.90;0.70;;;22.00;99.90;;;22.17;50.87;101717.28;4907083;28;97257;-43
2023/07/18 02:19:45;;;;;;;2.03;0.70;;;22.00;99.90;;;22.18;51.31;101721.69;4916440;28;98591;-44
2023/07/18 02:22:11;;;;;;;1.63;0.80;;;22.00;99.90;;;22.11;49.66;101722.19;4911529;28;97155;-43
2023/07/18 02:24:37;;;;;;;3.57;1.03;;;21.80;99.90;;;21.94;49.73;101720.59;4904523;28;102182;-43
2023/07/18 02:27:04;;;;;;;0.77;0.50;;;21.50;99.90;;;21.83;52.11;101723.13;4917284;28;97368;-44
2023/07/18 02:29:30;;;;;;;1.50;1.00;;;21.30;99.90;;;21.73;52.10;101722.03;4911355;28;98131;-45
2023/07/18 02:31:56;;;;;;;1.50;0.63;;;21.10;99.90;;;21.65;52.15;101715.34;4903951;28;97513;-45
2023/07/18 02:34:22;;;;;;;0.60;0.50;;;21.10;99.90;;;21.62;52.69;101720.91;4908372;28;97445;-43
2023/07/18 02:36:49;;;;;;;1.47;0.90;;;21.00;99.90;;;21.60;52.22;101717.47;4904945;28;97253;-43
2023/07/18 02:39:15;;;;;;;1.03;0.80;;;21.10;99.90;;;21.62;52.64;101712.84;4906321;28;97143;-44
2023/07/18 02:41:40;;;;;;;1.07;0.60;;;21.10;99.90;;;21.63;52.20;101711.88;4916332;28;99348;-45
2023/07/18 02:44:07;;;;;;;1.53;0.60;;;21.20;99.90;;;21.65;52.85;101718.00;4932757;28;105274;-45
2023/07/18 02:46:32;;;;;;;1.40;0.80;;;21.20;99.90;;;21.61;52.70;101708.44;4910926;28;97448;-44
2023/07/18 02:48:58;;;;;;;3.23;0.63;;;21.10;99.90;;;21.58;53.01;101708.66;4911622;28;97760;-45
2023/07/18 02:51:24;;;;;;;1.23;0.60;;;21.10;99.90;;;21.58;52.87;101708.66;4911934;28;98381;-44
2023/07/18 02:53:52;;;;;;;1.17;0.80;;;21.10;99.90;;;21.45;51.33;101706.88;4912843;28;97296;-44
2023/07/18 02:56:18;;;;;;;2.07;0.60;;;20.90;99.90;;;21.42;52.87;101707.94;4908394;28;97146;-44
2023/07/18 02:58:44;;;;;;;1.17;0.73;;;20.80;99.90;;;21.42;53.66;101707.94;4911172;28;97209;-46
2023/07/18 03:01:11;;;;;;;0.57;0.40;;;20.80;99.90;;;21.46;53.47;101708.59;4922170;28;98030;-44
2023/07/18 03:03:41;;;;;;;0.87;0.80;;;20.90;99.90;;;21.53;53.30;101702.69;4914513;28;101357;-44
2023/07/18 03:06:09;;;;;;;0.77;0.47;;;21.10;99.90;;;21.64;52.95;101705.56;4906228;28;97510;-44
2023/07/18 03:08:36;;;;;;;1.17;0.80;;;21.30;99.90;;;21.74;52.60;101707.66;4917762;28;98023;-42
2023/07/18 03:11:03;;;;;;;1.10;0.70;;;21.50;99.90;;;21.77;52.05;101704.75;4916342;28;97595;-43
2023/07/18 03:13:30;;;;;;;4.17;1.23;;;21.50;99.90;;;21.73;52.20;101708.63;4911496;28;97083;-42
2023/07/18 03:15:56;;;;;;;1.87;1.00;;;21.40;99.90;;;21.69;51.72;101715.97;4910227;28;97501;-44
2023/07/18 03:18:22;;;;;;;0.50;0.50;;;21.30;99.90;;;21.63;52.54;101714.56;4911341;28;97778;-43
2023/07/18 03:20:49;;;;;;;1.47;0.80;;;21.20;99.90;;;21.61;52.45;101713.81;4906337;28;97339;-44
2023/07/18 03:23:15;;;;;;;0.90;0.50;;;21.10;99.90;;;21.59;52.99;101714.88;4901296;28;97259;-43
2023/07/18 03:25:41;;;;;;;0.70;0.47;;;21.10;99.90;;;21.58;53.06;101708.66;4900203;28;97258;-45
2023/07/18 03:28:08;;;;;;;2.03;0.90;;;21.10;99.90;;;21.64;52.90;101708.25;4900744;28;105180;-43
2023/07/18 03:30:34;;;;;;;2.50;0.57;;;21.20;99.90;;;21.72;52.62;101709.56;4910078;28;98428;-43
2023/07/18 03:33:00;;;;;;;1.10;0.50;;;21.40;99.90;;;21.80;52.38;101712.59;4917248;28;97494;-43
2023/07/18 03:35:26;;;;;;;0.50;0.40;;;21.50;99.90;;;21.85;52.53;101710.50;4913641;28;97432;-44
2023/07/18 03:37:51;;;;;;;0.83;0.60;;;21.60;99.90;;;21.91;52.14;101715.44;4906195;28;97341;-43
2023/07/18 03:40:17;;;;;;;1.00;0.70;;;21.70;99.90;;;21.95;51.99;101703.53;4924210;28;111051;-42
2023/07/18 03:42:44;;;;;;;1.97;0.60;;;21.80;99.90;;;21.96;51.93;101707.94;4916688;28;97447;-43
2023/07/18 03:45:13;;;;;;;0.80;0.60;;;21.70;99.90;;;21.94;51.95;101707.19;4913813;28;97318;-42
2023/07/18 03:47:43;;;;;;;0.93;0.53;;;21.70;99.90;;;21.96;52.18;101702.56;4914874;28;97234;-42
2023/07/18 03:50:12;;;;;;;3.50;0.63;;;21.70;99.90;;;21.96;51.66;101713.31;4900322;28;98681;-45
2023/07/18 03:52:38;;;;;;;0.57;0.40;;;21.70;99.90;;;21.88;51.86;101707.59;4905570;28;97214;-45
2023/07/18 03:55:06;;;;;;;1.63;0.60;;;21.50;99.90;;;21.78;52.27;101704.66;4918493;28;97211;-42
2023/07/18 03:57:33;;;;;;;1.13;0.67;;;21.30;99.90;;;21.72;52.43;101709.56;4917703;28;97599;-45
2023/07/18 03:59:59;;;;;;;1.17;0.67;;;21.30;99.90;;;21.69;52.68;101707.94;4920594;28;97460;-46
2023/07/18 04:02:25;;;;;;;1.97;0.50;;;21.20;99.90;;;21.67;52.81;101707.19;4917853;28;97027;-44
2023/07/18 04:04:51;;;;;;;2.50;0.73;;;21.20;99.90;;;21.66;52.68;101706.31;4917077;28;97576;-43
2023/07/18 04:07:20;;;;;;;2.87;0.73;;;21.20;99.90;;;21.63;52.56;101703.84;4913110;28;97741;-43
2023/07/18 04:09:46;;;;;;;0.73;0.60;;;21.20;99.90;;;21.63;52.83;101703.84;4910065;28;97372;-44
2023/07/18 04:12:13;;;;;;;0.50;0.50;;;21.20;99.90;;;21.63;52.98;101701.16;4919932;28;97583;-42
2023/07/18 04:14:42;;;;;;;1.63;0.80;;;21.20;99.90;;;21.64;52.80;101702.00;4922966;28;97633;-42
2023/07/18 04:17:08;;;;;;;0.90;0.73;;;21.20;99.90;;;21.62;52.78;101699.44;4908820;28;97060;-42
2023/07/18 04:19:34;;;;;;;1.07;0.60;;;21.20;99.90;;;21.62;52.82;101699.44;4913652;28;98711;-44
2023/07/18 04:22:00;;;;;;;1.20;0.53;;;21.20;99.90;;;21.62;52.99;101691.38;4896138;28;97650;-45
2023/07/18 04:24:26;;;;;;;1.47;0.77;;;21.20;99.90;;;21.62;52.88;101688.69;4906941;28;97317;-44
2023/07/18 04:26:51;;;;;;;1.00;0.63;;;21.20;99.90;;;21.60;52.83;101693.31;4910152;28;110768;-44
2023/07/18 04:29:18;;;;;;;0.90;0.53;;;21.20;99.90;;;21.55;52.81;101700.78;4906296;28;97929;-43
2023/07/18 04:31:45;;;;;;;0.70;0.50;;;21.00;99.90;;;21.51;53.18;101709.13;4903544;28;97233;-53
2023/07/18 04:34:11;;;;;;;1.17;0.77;;;20.90;99.90;;;21.47;53.34;101703.13;4909361;28;97255;-45
2023/07/18 04:36:37;;;;;;;0.93;0.50;;;20.90;99.90;;;21.48;53.37;101706.66;4903482;28;97657;-43
2023/07/18 04:39:03;;;;;;;0.83;0.70;;;20.90;99.90;;;21.53;53.29;101704.53;4907094;28;98522;-42
2023/07/18 04:41:29;;;;;;;1.00;0.73;;;21.10;99.90;;;21.55;53.29;101708.84;4917651;28;97000;-42
2023/07/18 04:43:55;;;;;;;0.90;0.60;;;21.10;99.90;;;21.58;53.13;101700.59;4911337;28;100463;-43
2023/07/18 04:46:21;;;;;;;1.50;0.63;;;21.20;99.90;;;21.63;53.10;101698.47;4918381;28;97921;-43
2023/07/18 04:48:46;;;;;;;1.43;0.90;;;21.30;99.90;;;21.74;52.77;101696.91;4912058;28;109535;-42
2023/07/18 04:51:13;;;;;;;0.60;0.50;;;21.40;99.90;;;21.80;52.57;101697.34;4919045;28;97561;-42
2023/07/18 04:53:38;;;;;;;0.50;0.40;;;21.60;99.90;;;21.87;52.27;101693.31;4913861;28;102963;-42
2023/07/18 04:56:05;;;;;;;2.77;0.83;;;21.70;99.90;;;21.94;52.13;101689.22;4900239;28;101833;-42
2023/07/18 04:58:31;;;;;;;1.13;0.40;;;21.80;99.90;;;22.00;52.15;101692.50;4909945;28;97275;-44
2023/07/18 05:00:59;;;;;;;1.07;0.40;;;21.90;99.90;;;22.04;51.95;101689.47;4918834;28;98217;-43
2023/07/18 05:03:26;;;;;;;0.87;0.60;;;22.00;99.90;;;22.09;51.82;101687.38;4913999;28;97247;-44
2023/07/18 05:05:52;;;;;;;1.00;0.50;;;22.00;99.90;;;22.11;51.79;101696.19;4913982;28;97693;-45
2023/07/18 05:08:19;;;;;;;1.67;0.70;;;22.00;99.90;;;22.15;51.67;101689.66;4914602;28;97512;-43
2023/07/18 05:10:45;;;;;;;1.10;0.63;;;22.10;99.90;;;22.19;48.94;101687.63;4920531;28;97492;-43
2023/07/18 05:13:11;;;;;;;1.00;0.77;;;22.10;99.90;;;22.13;51.62;101678.16;4905682;28;97240;-46
2023/07/18 05:15:37;;;;;;;1.33;0.63;;;22.00;99.90;;;22.13;51.41;101672.78;4913536;28;98458;-42
2023/07/18 05:18:03;;;;;;;2.90;0.90;;;22.00;99.90;;;22.11;47.18;101674.69;4916236;28;97331;-45
2023/07/18 05:20:30;;;;;;;4.40;0.87;;;21.90;99.90;;;22.00;51.21;101677.22;4918255;28;96746;-45
2023/07/18 05:22:55;;;;;;;1.27;0.70;;;21.70;99.90;;;21.94;51.42;101688.38;4914682;28;97314;-44
2023/07/18 05:25:21;;;;;;;0.90;0.60;;;21.70;99.90;;;22.01;51.82;101678.94;4914938;28;107643;-43
2023/07/18 05:27:47;;;;;;;0.70;0.50;;;21.80;99.90;;;21.92;51.76;101687.63;4914143;28;109962;-44
2023/07/18 05:30:17;;;;;;;1.23;0.60;;;21.70;99.90;;;21.93;52.09;101678.59;4901745;28;97317;-44
2023/07/18 05:32:44;;;;;;;2.00;1.30;;;21.70;99.90;;;21.82;47.42;101678.44;4907917;28;97410;-42
2023/07/18 05:35:15;;;;;;;1.47;1.07;;;21.60;99.90;;;21.72;47.90;101685.41;4909750;28;104226;-43
2023/07/18 05:37:43;;;;;;;2.13;1.00;;;21.40;99.90;;;21.64;52.25;101686.75;4916269;28;102106;-42
2023/07/18 05:40:10;;;;;;;0.80;0.70;;;21.20;99.90;;;21.69;52.53;101695.38;4921391;28;97148;-46
2023/07/18 05:42:40;;;;;;;1.23;0.60;;;21.30;99.90;;;21.74;52.75;101691.53;4907377;28;97913;-43
2023/07/18 05:45:08;;;;;;;0.80;0.60;;;21.50;99.90;;;21.83;52.58;101690.91;4917995;28;98045;-43
2023/07/18 05:47:35;;;;;;;0.53;0.30;;;21.60;99.90;;;21.88;52.29;101689.66;4899464;28;97961;-42
2023/07/18 05:50:02;;;;;;;0.70;0.50;;;21.70;99.90;;;21.90;52.26;101692.22;4910966;28;97771;-42
2023/07/18 05:52:28;;;;;;;0.67;0.50;;;21.80;99.90;;;21.99;52.03;101688.94;4911894;28;96864;-44
2023/07/18 05:54:54;;;;;;;2.77;1.23;;;21.90;99.90;;;21.96;48.02;101702.56;4916030;28;104460;-42
2023/07/18 05:57:19;;;;;;;2.43;1.03;;;21.90;99.90;;;21.87;48.07;101703.19;4909911;28;97498;-44
2023/07/18 05:59:45;;;;;;;1.30;0.87;;;21.70;99.90;;;21.87;52.38;101697.81;4915576;28;99801;-49
2023/07/18 06:02:11;;;;;;;0.67;0.57;;;21.70;99.90;;;21.95;52.09;101699.00;4909854;28;97266;-44
2023/07/18 06:04:37;;;;;;;1.10;0.60;;;21.80;99.90;;;22.03;51.89;101703.03;4920876;28;120713;-43
2023/07/18 06:07:04;;;;;;;2.87;0.90;;;21.90;99.90;;;21.94;47.50;101693.75;4909972;28;98153;-43
2023/07/18 06:09:30;;;;;;;1.17;0.83;;;21.80;99.90;;;21.94;51.88;101696.44;4909693;28;97296;-43
2023/07/18 06:11:56;;;;;;;1.30;0.90;;;21.70;99.90;;;21.88;49.95;101695.03;4911315;28;97457;-43
2023/07/18 06:14:21;;;;;;;1.60;1.10;;;21.70;99.90;;;21.83;47.77;101702.50;4917767;28;98447;-43
2023/07/18 06:16:47;;;;;;;2.17;1.27;;;21.60;99.90;;;21.84;48.96;101698.00;4918925;28;119120;-44
2023/07/18 06:19:15;;;;;;;1.90;1.20;;;21.50;99.90;;;21.72;47.88;101698.84;4915032;28;97057;-42
2023/07/18 06:21:41;;;;;;;2.47;1.30;;;21.40;99.90;;;21.57;48.80;101700.69;4913843;28;97092;-43
2023/07/18 06:24:07;;;;;;;2.50;0.90;;;21.20;99.90;;;21.64;52.73;101696.63;4917124;28;96750;-42
2023/07/18 06:26:33;;;;;;;0.87;0.50;;;21.30;99.90;;;21.72;52.67;101693.47;4912953;28;99034;-44
2023/07/18 06:28:59;;;;;;;0.67;0.63;;;21.50;99.90;;;21.77;52.47;101694.00;4923730;28;97070;-42
2023/07/18 06:31:24;;;;;;;0.73;0.50;;;21.60;99.90;;;21.88;52.31;101688.78;4910071;28;100227;-44
2023/07/18 06:33:50;;;;;;;0.60;0.40;;;21.70;99.90;;;21.91;51.98;101683.22;4908308;28;99354;-43
2023/07/18 06:36:16;;;;;;;0.83;0.60;;;21.80;99.90;;;21.97;51.87;101686.34;4901506;28;114352;-42
2023/07/18 06:38:43;;;;;;;1.63;0.83;;;21.80;99.90;;;22.02;51.93;101682.50;4916456;28;97073;-43
2023/07/18 06:41:09;;;;;;;1.57;0.70;;;21.90;99.90;;;22.08;51.85;101685.66;4908895;28;97148;-43
2023/07/18 06:43:34;;;;;;;0.67;0.50;;;22.00;99.90;;;22.10;51.23;101677.47;4915601;28;97480;-43
2023/07/18 06:46:00;;;;;;;1.27;0.60;;;21.90;99.90;;;22.09;51.39;101673.06;4904704;28;98519;-44
2023/07/18 06:48:26;;;;;;;0.87;0.60;;;21.90;99.90;;;22.12;51.47;101676.41;4905028;28;98345;-44
2023/07/18 06:50:53;;;;;;;2.57;1.63;;;22.00;99.90;;;22.13;48.54;101672.78;4895212;28;98448;-43
2023/07/18 06:53:21;;;;;;;1.37;0.70;;;22.00;99.90;;;22.11;51.41;101674.69;4896429;28;98029;-43
2023/07/18 06:55:48;;;;;;;0.90;0.70;;;22.00;99.90;;;22.20;51.39;101673.22;4893207;28;122626;-47
2023/07/18 06:58:18;;;;;;;1.47;0.70;;;22.10;99.90;;;22.19;51.45;101666.13;4904431;28;97352;-44
2023/07/18 07:00:46;;;;;;;1.17;0.80;;;22.10;99.90;;;22.22;51.45;101671.28;4898129;28;97530;-47
2023/07/18 07:03:13;;;;;;;1.63;0.73;;;22.20;99.90;;;22.26;51.40;101668.25;4900423;28;102538;-47
2023/07/18 07:05:42;;;;;;;1.27;0.60;;;22.20;99.90;;;22.32;50.99;101666.13;4898588;28;104570;-46
2023/07/18 07:08:12;;;;;;;1.47;0.80;;;22.20;99.90;;;22.33;50.97;101662.47;4890241;28;97381;-43
2023/07/18 07:10:42;;;;;;;1.00;0.70;;;22.20;99.90;;;22.35;48.28;101666.78;4904977;28;97603;-47
2023/07/18 07:13:09;;;;;;;1.77;1.07;;;22.30;99.90;;;22.31;51.20;101661.72;4891412;28;97479;-45
2023/07/18 07:15:35;;;;;;;1.47;0.90;;;22.20;99.90;;;22.24;47.13;101659.44;4895184;28;97527;-43
2023/07/18 07:18:03;;;;;;;0.80;0.60;;;22.10;99.90;;;22.23;50.89;101664.94;4898174;28;100587;-42
2023/07/18 07:20:32;;;;;;;2.00;1.07;;;22.00;99.90;;;22.20;51.27;101657.94;4906914;28;97078;-43
2023/07/18 07:22:58;;;;;;;0.70;0.67;;;22.10;99.90;;;22.27;51.13;101658.38;4901627;28;97294;-46
2023/07/18 07:25:29;;;;;;;0.57;0.50;;;22.10;99.90;;;22.30;48.11;101652.81;4902859;28;98178;-45
2023/07/18 07:27:56;;;;;;;2.00;0.80;;;22.20;99.90;;;22.21;50.73;101648.91;4900683;28;97372;-43
2023/07/18 07:30:22;;;;;;;1.33;0.67;;;22.00;99.90;;;22.18;51.36;101638.38;4899187;28;97378;-42
2023/07/18 07:32:53;;;;;;;1.20;0.73;;;22.00;99.90;;;22.22;51.35;101647.09;4896195;28;99038;-46
2023/07/18 07:35:22;;;;;;;1.33;0.67;;;22.10;99.90;;;22.27;50.99;101651.16;4902819;28;97536;-44
2023/07/18 07:37:55;;;;;;;1.13;0.63;;;22.10;99.90;;;22.20;51.28;101652.56;4900366;28;98586;-42
2023/07/18 07:40:21;;;;;;;1.30;0.83;;;22.20;99.90;;;22.24;51.30;101648.69;4915345;28;99026;-43
2023/07/18 07:42:47;;;;;;;1.00;0.60;;;22.20;99.90;;;22.29;50.91;101645.72;4906372;28;104437;-42
2023/07/18 07:45:15;;;;;;;1.53;0.93;;;22.20;99.90;;;22.33;50.94;101638.28;4920003;28;103195;-43
2023/07/18 07:47:41;;;;;;;0.87;0.60;;;22.30;99.90;;;22.35;50.97;101634.53;4891980;28;97700;-42
2023/07/18 07:50:08;;;;;;;0.90;0.70;;;22.30;99.90;;;22.34;50.84;101631.94;4925408;28;97371;-43
2023/07/18 07:52:35;;;;;;;3.07;1.00;;;22.30;99.90;;;22.40;50.32;101621.63;4914981;28;97734;-43
2023/07/18 07:55:02;;;;;;;1.37;0.73;;;22.30;99.90;;;22.37;50.73;101620.97;4909871;28;99379;-43
2023/07/18 07:57:29;;;;;;;0.50;0.50;;;22.30;99.90;;;22.34;50.51;101626.56;4903822;28;97266;-44
2023/07/18 07:59:54;;;;;;;2.37;0.80;;;22.30;99.90;;;22.43;50.44;101626.81;4911484;28;97132;-44
2023/07/18 08:02:20;;;;;;;1.23;0.57;;;22.40;99.90;;;22.45;50.55;101624.00;4905208;28;97507;-43
2023/07/18 08:04:47;;;;;;;2.60;0.73;;;22.40;99.90;;;22.51;47.46;101620.88;4910820;28;112193;-48
2023/07/18 08:07:15;;;;;;;1.00;0.67;;;22.40;99.90;;;22.51;50.12;101612.81;4892782;28;97564;-43
2023/07/18 08:09:41;;;;;;;2.90;0.83;;;22.40;99.90;;;22.54;47.52;101628.72;4913191;28;97532;-43
2023/07/18 08:12:09;;;;;;;0.63;0.47;;;22.40;99.90;;;22.53;50.07;101635.91;4899633;28;99718;-43
2023/07/18 08:14:37;;;;;;;1.20;0.60;;;22.40;99.90;;;22.55;50.05;101631.28;4917624;28;99251;-42
2023/07/18 08:17:04;;;;;;;1.20;0.67;;;22.50;99.90;;;22.52;50.36;101622.59;4919189;28;97572;-42
2023/07/18 08:19:36;;;;;;;1.63;0.50;;;22.50;99.90;;;22.46;49.12;101623.03;4912026;28;97514;-44
2023/07/18 08:22:04;;;;;;;1.43;0.67;;;22.40;99.90;;;22.53;47.95;101621.63;4910163;28;97467;-45
2023/07/18 08:24:30;;;;;;;0.73;0.70;;;22.40;99.90;;;22.54;50.05;101618.81;4908052;28;98152;-42
2023/07/18 08:26:57;;;;;;;1.90;1.00;;;22.40;99.90;;;22.57;45.54;101623.13;4911826;28;97488;-45
2023/07/18 08:29:29;;;;;;;1.83;0.60;;;22.40;99.90;;;22.58;49.88;101618.63;4906057;28;97090;-42
2023/07/18 08:31:55;;;;;;;3.37;0.90;;;22.50;99.90;;;22.59;44.59;101618.50;4905779;28;99689;-48
2023/07/18 08:34:21;;;;;;;1.10;0.50;;;22.50;99.90;;;22.52;50.14;101610.00;4907982;28;112875;-44
2023/07/18 08:36:47;;;;;;;0.73;0.67;;;22.50;99.90;;;22.48;50.37;101613.03;4924708;28;97383;-42
2023/07/18 08:39:14;;;;;;;0.90;0.70;;;22.50;99.90;;;22.54;45.15;101608.06;4915013;28;97241;-43
2023/07/18 08:41:49;;;;;;;1.10;0.40;;;22.50;99.90;;;22.59;49.91;101604.22;4917741;28;97973;-46
2023/07/18 08:44:17;;;;;;;1.07;0.70;;;22.50;99.90;;;22.63;44.78;101595.81;4914330;28;102263;-46
2023/07/18 08:46:47;;;;;;;1.10;0.70;;;22.50;99.90;;;22.63;42.38;101595.81;4909468;28;97144;-44
2023/07/18 08:49:14;;;;;;;1.57;0.80;;;22.50;99.90;;;22.63;48.06;101601.19;4917686;28;97139;-43
2023/07/18 08:51:42;;;;;;;1.10;0.60;;;22.50;99.90;;;22.59;50.01;101599.69;4918671;28;97768;-43
2023/07/18 08:54:07;;;;;;;0.77;0.60;;;22.60;99.90;;;22.62;43.41;101593.22;4911940;28;100743;-44
2023/07/18 08:56:33;;;;;;;2.23;0.90;;;22.50;99.90;;;22.69;45.54;101600.72;4913186;28;97603;-42
2023/07/18 08:59:01;;;;;;;1.60;0.70;;;22.60;99.90;;;22.72;42.58;101592.47;4924893;28;97478;-43
2023/07/18 09:01:26;;;;;;;0.93;0.40;;;22.60;99.90;;;22.71;39.79;101593.44;4906527;28;98986;-44
2023/07/18 09:03:53;;;;;;;1.50;0.60;;;22.60;98.00;;;22.73;39.48;101590.63;4923568;28;101291;-42
2023/07/18 09:06:20;;;;;;;0.30;0.20;;;22.60;97.40;;;22.77;39.62;101576.00;4923501;28;106428;-42
2023/07/18 09:08:47;;;;;;;1.03;0.53;;;22.60;97.30;;;22.80;40.78;101571.25;4906936;28;97009;-43
2023/07/18 09:11:16;;;;;;;1.83;0.60;;;22.70;98.30;;;22.82;39.94;101569.31;4907407;28;101854;-44
2023/07/18 09:13:42;;;;;;;1.87;0.70;;;22.70;97.30;;;22.83;39.12;101565.66;4904564;28;99031;-46
2023/07/18 09:16:26;;;;;;;1.47;0.57;;;22.70;96.50;;;22.85;39.81;101568.25;4898807;28;97209;-42
2023/07/18 09:18:57;;;;;;;1.10;0.40;;;22.70;97.20;;;22.84;42.87;101562.00;4904246;28;112093;-44
2023/07/18 09:21:23;;;;;;;1.00;0.70;;;22.80;99.80;;;22.83;38.63;101549.53;4894499;28;106564;-42
2023/07/18 09:23:50;;;;;;;0.90;0.60;;;22.80;96.30;;;22.88;39.72;101546.53;4906257;28;122082;-43
2023/07/18 09:26:21;;;;;;;1.63;0.77;;;22.80;97.00;;;22.93;39.56;101543.47;4909166;28;97018;-43
2023/07/18 09:28:48;;;;;;;3.00;0.80;;;22.80;96.30;;;22.92;46.61;101547.16;4902314;28;96928;-44
2023/07/18 09:31:23;;;;;;;1.87;0.50;;;22.80;99.90;;;22.95;40.91;101542.38;4907216;28;103952;-43
2023/07/18 09:33:52;;;;;;;2.80;0.90;;;22.90;98.60;;;22.99;38.94;101540.31;4908316;28;100975;-42
2023/07/18 09:36:24;;;;;;;2.83;0.87;;;22.90;96.20;;;23.02;41.06;101540.13;4918138;28;106125;-53
2023/07/18 09:38:51;;;;;;;1.77;0.97;;;23.00;97.60;;;23.01;42.01;101530.34;4919774;28;97429;-43
2023/07/18 09:41:19;;;;;;;1.33;0.70;;;23.00;97.80;;;23.05;39.75;101542.59;4919243;28;97821;-42
2023/07/18 09:43:46;;;;;;;1.65;0.95;;;23.00;96.60;;;23.06;39.71;101545.16;4909520;28;99768;-44
2023/07/18 09:46:14;;;;;;;1.65;0.77;;;23.00;96.50;;;23.09;40.19;101544.06;4916395;28;97345;-42
2023/07/18 09:48:44;;;;;;;2.20;0.77;;;23.00;97.00;;;23.11;39.95;101552.88;4909579;28;97384;-46
2023/07/18 09:51:20;;;;;;;2.30;0.77;;;23.00;96.80;;;23.09;43.58;101561.06;4888055;28;98566;-42
2023/07/18 09:53:48;;;;;;;3.70;1.07;;;23.00;99.50;;;23.07;42.99;101552.25;4899749;28;100673;-42
2023/07/18 09:56:17;;;;;;;1.97;1.00;;;23.00;99.00;;;23.09;40.15;101554.81;4873522;28;97948;-42
2023/07/18 09:58:49;;;;;;;1.07;0.60;;;23.00;96.80;;;23.08;41.41;101550.41;4887219;28;99227;-42
2023/07/18 10:01:20;;;;;;;1.42;0.88;;;23.00;98.30;;;23.11;40.85;101553.72;4888735;28;102237;-46
2023/07/18 10:03:52;;;;;;;0.90;0.50;;;23.10;97.60;;;23.13;45.82;101551.78;4895093;28;100119;-45
2023/07/18 10:06:18;;;;;;;1.00;0.40;;;23.10;99.90;;;23.01;47.30;101551.88;4892461;28;98359;-43
2023/07/18 10:08:45;;;;;;;1.70;0.65;;;23.10;99.90;;;22.99;47.87;101551.09;4902511;28;114708;-43
2023/07/18 10:11:11;;;;;;;2.53;0.63;;;23.00;99.90;;;23.02;43.20;101553.56;4918372;28;98887;-44